Time;durP1;ratioP1;P1;durP2;ratioP2;P2;SDS_P1;SDS_P2;PMS_P1;PMS_P2;Temp;Humidity;BMP_temperature;BMP_pressure;BME280_temperature;BME280_humidity;BME280_pressure;Samples;Min_cycle;Max_cycle;Signal;HPM_P1;HPM_P2
2022/01/30 00:02:01;;;;;;;40.92;6.65;;;6.10;99.90;;;;;;6068563;23;20105;-77
2022/01/30 00:04:33;;;;;;;39.13;6.05;;;6.60;99.90;;;;;;6047962;23;20097;-78
2022/01/30 00:07:11;;;;;;;40.35;6.85;;;5.20;99.90;;;;;;6071757;23;20014;-78
2022/01/30 00:09:39;;;;;;;35.80;5.43;;;5.90;99.90;;;;;;6070970;23;20011;-78
2022/01/30 00:12:06;;;;;;;34.72;5.68;;;6.10;99.90;;;;;;6047531;23;20349;-78
2022/01/30 00:14:37;;;;;;;45.05;5.47;;;5.90;99.90;;;;;;6048588;23;20022;-78
2022/01/30 00:17:11;;;;;;;37.25;5.07;;;5.80;99.90;;;;;;6096528;23;20018;-78
2022/01/30 00:19:45;;;;;;;30.20;4.85;;;5.60;99.90;;;;;;6050903;23;20014;-78
2022/01/30 00:22:20;;;;;;;26.98;4.03;;;5.60;99.90;;;;;;6049549;23;20032;-77
2022/01/30 00:24:56;;;;;;;21.43;3.83;;;5.60;99.90;;;;;;6096256;23;20047;-78
2022/01/30 00:27:32;;;;;;;22.40;3.45;;;5.50;99.90;;;;;;6096339;23;20251;-78
2022/01/30 00:30:03;;;;;;;;;;;5.40;99.90;;;;;;6071830;23;20010;-78
2022/01/30 00:32:28;;;;;;;16.30;3.38;;;5.30;99.90;;;;;;6049302;23;20339;-79
2022/01/30 00:34:54;;;;;;;35.97;5.10;;;5.40;99.90;;;;;;6096211;23;20018;-79
2022/01/30 00:37:21;;;;;;;32.53;4.85;;;5.30;99.90;;;;;;6047655;23;20037;-78
2022/01/30 00:39:47;;;;;;;27.70;4.38;;;5.30;99.90;;;;;;6096152;23;20345;-79
2022/01/30 00:42:13;;;;;;;28.67;4.25;;;5.30;99.90;;;;;;6048369;23;20058;-78
2022/01/30 00:44:41;;;;;;;21.65;3.95;;;5.20;99.90;;;;;;6072333;23;20014;-78
2022/01/30 00:47:12;;;;;;;23.50;4.22;;;4.70;99.90;;;;;;6096258;23;20449;-78
2022/01/30 00:49:38;;;;;;;30.05;4.40;;;5.10;99.90;;;;;;6049712;23;20010;-78
2022/01/30 00:52:04;;;;;;;32.47;4.75;;;5.10;99.90;;;;;;6072202;23;20425;-78
2022/01/30 00:54:30;;;;;;;40.50;5.22;;;5.10;99.90;;;;;;6097702;23;20014;-78
2022/01/30 00:56:59;;;;;;;37.80;5.68;;;5.00;99.90;;;;;;6071740;23;20381;-78
2022/01/30 00:59:28;;;;;;;43.20;6.07;;;5.10;99.90;;;;;;6096200;23;20435;-78
2022/01/30 01:01:54;;;;;;;47.58;6.68;;;5.70;99.90;;;;;;6096002;23;20021;-78
2022/01/30 01:04:22;;;;;;;45.05;6.03;;;5.10;99.90;;;;;;6095853;23;20018;-78
2022/01/30 01:06:50;;;;;;;47.08;6.60;;;5.10;99.90;;;;;;6095945;23;20125;-78
2022/01/30 01:09:22;;;;;;;47.47;7.03;;;5.70;99.90;;;;;;6095896;23;20101;-78
2022/01/30 01:25:16;;;;;;;42.38;6.95;;;5.20;99.90;;;;;;6075615;23;20014;-78
2022/01/30 01:27:45;;;;;;;51.50;7.07;;;5.40;99.90;;;;;;6071677;23;20032;-77
2022/01/30 01:30:13;;;;;;;47.40;7.00;;;5.40;99.90;;;;;;6071591;23;20223;-78
2022/01/30 01:32:39;;;;;;;55.10;7.57;;;5.40;99.90;;;;;;6071796;23;20102;-78
2022/01/30 01:35:05;;;;;;;50.08;8.80;;;5.40;99.90;;;;;;6071809;23;20018;-78
2022/01/30 01:37:31;;;;;;;54.50;9.95;;;5.40;99.90;;;;;;6047687;23;20055;-78
2022/01/30 01:39:57;;;;;;;48.20;6.65;;;5.40;99.90;;;;;;6047728;23;20025;-78
2022/01/30 01:42:29;;;;;;;46.85;6.72;;;5.80;99.90;;;;;;6071409;23;20025;-80
2022/01/30 01:44:57;;;;;;;48.85;6.88;;;5.40;99.90;;;;;;6073033;23;20566;-79
2022/01/30 01:47:33;;;;;;;46.28;6.25;;;5.40;99.90;;;;;;6048361;23;20022;-79
2022/01/30 01:49:59;;;;;;;44.95;6.53;;;5.50;99.90;;;;;;6073861;23;20014;-78
2022/01/30 01:52:26;;;;;;;38.83;5.43;;;5.30;99.90;;;;;;6095408;23;20018;-78
2022/01/30 01:54:58;;;;;;;32.40;5.72;;;5.30;99.90;;;;;;6095490;23;20013;-78
2022/01/30 01:57:25;;;;;;;44.60;6.30;;;5.30;99.90;;;;;;6095233;23;20033;-79
2022/01/30 01:59:52;;;;;;;47.33;6.07;;;5.30;99.90;;;;;;6070365;23;20014;-79
2022/01/30 02:02:18;;;;;;;44.60;6.13;;;5.90;99.90;;;;;;6071173;23;20018;-79
2022/01/30 02:04:50;;;;;;;41.92;7.13;;;6.20;99.90;;;;;;6094751;23;20396;-79
2022/01/30 02:08:07;;;;;;;46.33;7.13;;;5.20;99.90;;;;;;6071424;23;20040;-79
2022/01/30 02:10:06;;;;;;;49.72;7.43;;;5.30;99.90;;;;;;6096260;23;20461;-78
2022/01/30 02:12:45;;;;;;;54.00;8.05;;;5.30;99.90;;;;;;6071563;23;20078;-79
2022/01/30 02:25:59;;;;;;;44.03;6.70;;;5.50;99.90;;;;;;6075519;23;20022;-80
2022/01/30 02:28:27;;;;;;;71.60;9.05;;;6.20;99.90;;;;;;6048480;23;20014;-79
2022/01/30 02:31:11;;;;;;;55.53;7.47;;;5.40;99.90;;;;;;6095682;23;20381;-79
2022/01/30 02:33:41;;;;;;;51.70;8.02;;;5.30;99.90;;;;;;6074420;23;20333;-79
2022/01/30 02:36:07;;;;;;;52.03;7.80;;;5.30;99.90;;;;;;6070684;23;20018;-79
2022/01/30 02:38:33;;;;;;;47.80;7.38;;;5.30;99.90;;;;;;6071417;23;20019;-79
2022/01/30 02:40:59;;;;;;;47.63;7.22;;;5.30;99.90;;;;;;6047001;23;20017;-79
2022/01/30 02:43:33;;;;;;;52.33;8.23;;;5.30;99.90;;;;;;6071196;23;20437;-79
2022/01/30 02:46:21;;;;;;;54.22;7.47;;;5.30;99.90;;;;;;6071240;23;20010;-80
2022/01/30 02:48:54;;;;;;;51.22;7.25;;;5.30;99.90;;;;;;6094888;23;20108;-80
2022/01/30 02:51:22;;;;;;;64.07;9.50;;;5.30;99.90;;;;;;6072027;23;20053;-79
2022/01/30 02:54:02;;;;;;;66.35;9.43;;;5.30;99.90;;;;;;6047620;23;20018;-79
2022/01/30 02:56:33;;;;;;;65.30;10.45;;;5.20;99.90;;;;;;6071064;23;20014;-79
2022/01/30 02:58:59;;;;;;;65.63;8.57;;;5.20;99.90;;;;;;6094868;23;20166;-80
2022/01/30 03:01:25;;;;;;;55.88;8.55;;;5.30;99.90;;;;;;6095000;23;20341;-80
2022/01/30 03:03:51;;;;;;;59.33;8.80;;;6.00;99.90;;;;;;6071171;23;20364;-79
2022/01/30 03:06:16;;;;;;;54.55;10.10;;;5.40;99.90;;;;;;6071004;23;20346;-79
2022/01/30 03:08:42;;;;;;;63.72;8.68;;;5.60;99.90;;;;;;6070550;23;20464;-80
2022/01/30 03:11:08;;;;;;;49.70;8.50;;;5.40;99.90;;;;;;6095031;23;20050;-80
2022/01/30 03:13:34;;;;;;;52.55;8.50;;;5.40;99.90;;;;;;6070866;23;20014;-80
2022/01/30 03:16:03;;;;;;;45.45;7.90;;;5.50;99.90;;;;;;6071049;23;20014;-80
2022/01/30 03:18:30;;;;;;;50.25;9.05;;;5.40;99.90;;;;;;6071848;23;20081;-79
2022/01/30 03:20:56;;;;;;;56.60;8.18;;;5.50;99.90;;;;;;6094930;23;20019;-79
2022/01/30 03:23:22;;;;;;;56.00;8.43;;;5.50;99.90;;;;;;6070335;23;20010;-79
2022/01/30 03:25:54;;;;;;;67.53;9.35;;;5.50;99.90;;;;;;6071016;23;20021;-79
2022/01/30 03:28:20;;;;;;;56.65;8.40;;;5.50;99.90;;;;;;6072130;23;20030;-79
2022/01/30 03:30:47;;;;;;;65.45;9.40;;;5.50;99.90;;;;;;6070874;23;20508;-79
2022/01/30 03:33:13;;;;;;;56.13;8.68;;;5.50;99.90;;;;;;6094784;23;20018;-79
2022/01/30 03:35:40;;;;;;;73.97;9.52;;;5.80;99.90;;;;;;6070557;23;20015;-79
2022/01/30 03:38:06;;;;;;;63.85;8.25;;;5.50;99.90;;;;;;6047091;23;20049;-79
2022/01/30 03:40:32;;;;;;;56.60;9.13;;;5.60;99.90;;;;;;6094175;23;20015;-79
2022/01/30 03:42:58;;;;;;;63.92;8.68;;;5.60;99.90;;;;;;6070868;23;20046;-79
2022/01/30 03:45:23;;;;;;;56.67;8.65;;;5.60;99.90;;;;;;6094837;23;20386;-79
2022/01/30 03:47:52;;;;;;;69.75;10.07;;;5.60;99.90;;;;;;6048882;23;20015;-79
2022/01/30 03:50:17;;;;;;;59.55;8.18;;;5.60;99.90;;;;;;6049627;23;20073;-79
2022/01/30 03:52:43;;;;;;;69.07;9.80;;;5.60;99.90;;;;;;6096922;23;20054;-79
2022/01/30 03:55:09;;;;;;;67.57;8.98;;;5.60;99.90;;;;;;6097632;23;20022;-79
2022/01/30 03:57:35;;;;;;;67.10;10.35;;;5.60;99.90;;;;;;6072892;23;20018;-79
2022/01/30 04:00:01;;;;;;;60.03;9.43;;;5.60;99.90;;;;;;6096968;23;20340;-80
2022/01/30 04:02:26;;;;;;;72.63;9.73;;;6.20;99.90;;;;;;6096648;23;20019;-80
2022/01/30 04:04:52;;;;;;;59.72;8.43;;;5.60;99.90;;;;;;6072765;23;20074;-79
2022/01/30 04:07:19;;;;;;;61.42;8.82;;;5.60;99.90;;;;;;6096664;23;20014;-80
2022/01/30 04:09:45;;;;;;;60.20;7.88;;;5.50;99.90;;;;;;6096826;23;20051;-79
2022/01/30 04:12:11;;;;;;;74.32;9.23;;;5.50;99.90;;;;;;6048402;23;20029;-80
2022/01/30 04:14:37;;;;;;;56.67;8.98;;;5.50;99.90;;;;;;6096709;23;20019;-80
2022/01/30 04:17:07;;;;;;;49.83;7.90;;;5.50;99.90;;;;;;6072539;23;20094;-79
2022/01/30 04:19:33;;;;;;;62.58;9.45;;;6.30;99.90;;;;;;6072700;23;20022;-79
2022/01/30 04:21:59;;;;;;;62.50;9.27;;;5.50;99.90;;;;;;6072173;23;20074;-79
2022/01/30 04:24:24;;;;;;;55.33;9.98;;;5.50;99.90;;;;;;6096546;23;20042;-79
2022/01/30 04:26:50;;;;;;;70.25;9.85;;;5.50;99.90;;;;;;6072834;23;20025;-79
2022/01/30 04:29:16;;;;;;;64.65;10.77;;;5.50;99.90;;;;;;6071720;23;20014;-79
2022/01/30 04:31:43;;;;;;;69.60;9.65;;;5.60;99.90;;;;;;6072390;23;20057;-80
2022/01/30 04:34:10;;;;;;;81.40;11.77;;;5.40;99.90;;;;;;6072435;23;20023;-80
2022/01/30 04:36:41;;;;;;;73.43;11.77;;;5.60;99.90;;;;;;6072450;23;20029;-79
2022/01/30 04:39:28;;;;;;;67.78;10.88;;;5.60;99.90;;;;;;6072449;23;20021;-80
2022/01/30 04:53:14;;;;;;;62.95;10.13;;;5.70;99.90;;;;;;6096170;23;20532;-78
2022/01/30 05:01:16;;;;;;;75.10;12.05;;;5.70;99.90;;;;;;6062900;23;20026;-81
2022/01/30 05:06:19;;;;;;;79.30;10.15;;;5.70;99.90;;;;;;6096113;23;20378;-81
2022/01/30 05:08:45;;;;;;;60.47;10.45;;;5.70;99.90;;;;;;6048046;23;20052;-81
2022/01/30 05:11:11;;;;;;;75.95;10.80;;;5.80;99.90;;;;;;6072222;23;20428;-81
2022/01/30 05:13:43;;;;;;;61.45;10.57;;;5.70;99.90;;;;;;6096333;23;20072;-81
2022/01/30 05:16:09;;;;;;;70.07;10.75;;;5.80;99.90;;;;;;6072206;23;20046;-81
2022/01/30 05:18:35;;;;;;;90.63;12.85;;;5.80;99.90;;;;;;6096083;23;20158;-81
2022/01/30 05:21:01;;;;;;;73.07;11.43;;;5.80;99.90;;;;;;6095093;23;20050;-81
2022/01/30 05:23:28;;;;;;;71.65;10.20;;;5.80;99.90;;;;;;6048152;23;20034;-81
2022/01/30 05:25:54;;;;;;;68.45;10.50;;;5.80;99.90;;;;;;6071967;23;20014;-81
2022/01/30 05:28:24;;;;;;;64.65;10.35;;;5.80;99.90;;;;;;6071917;23;20405;-81
2022/01/30 05:30:51;;;;;;;62.47;10.15;;;5.80;99.90;;;;;;6095851;23;20074;-82
2022/01/30 05:33:17;;;;;;;62.72;10.85;;;5.80;99.90;;;;;;6095739;23;20026;-81
2022/01/30 05:35:43;;;;;;;62.33;9.63;;;5.80;99.90;;;;;;6071481;23;20026;-81
2022/01/30 05:38:09;;;;;;;71.88;11.35;;;5.80;99.90;;;;;;6075954;23;20325;-82
2022/01/30 05:40:40;;;;;;;75.15;10.32;;;5.80;99.90;;;;;;6076418;23;20022;-81
2022/01/30 05:43:06;;;;;;;75.05;10.43;;;6.40;99.90;;;;;;6053395;23;20369;-81
2022/01/30 05:45:40;;;;;;;79.18;11.02;;;5.80;99.90;;;;;;6077230;23;20069;-81
2022/01/30 05:48:17;;;;;;;74.68;11.25;;;5.80;99.90;;;;;;6077002;23;20370;-81
2022/01/30 05:50:44;;;;;;;82.53;12.43;;;5.80;99.90;;;;;;6076838;23;20014;-82
2022/01/30 05:53:10;;;;;;;78.70;12.43;;;5.80;99.90;;;;;;6076037;23;20463;-81
2022/01/30 05:55:38;;;;;;;54.33;10.18;;;5.80;99.90;;;;;;6076840;23;20010;-81
2022/01/30 05:58:04;;;;;;;49.00;8.43;;;5.70;99.90;;;;;;6100343;23;20024;-81
2022/01/30 06:00:30;;;;;;;65.05;9.18;;;6.00;99.90;;;;;;6100368;23;20018;-77
2022/01/30 06:02:56;;;;;;;60.22;9.05;;;5.50;99.90;;;;;;6076323;23;20326;-78
2022/01/30 06:05:24;;;;;;;56.20;9.13;;;5.20;99.90;;;;;;6076153;23;20017;-80
2022/01/30 06:07:53;;;;;;;52.40;8.82;;;5.20;99.90;;;;;;6076982;23;20025;-80
2022/01/30 06:10:27;;;;;;;61.50;8.90;;;5.10;99.90;;;;;;6076001;23;20052;-79
2022/01/30 06:12:53;;;;;;;54.90;9.18;;;5.10;99.90;;;;;;6076241;23;20013;-79
2022/01/30 06:15:19;;;;;;;63.92;9.75;;;5.40;99.90;;;;;;6100205;23;20056;-79
2022/01/30 06:17:45;;;;;;;64.88;9.30;;;5.10;99.90;;;;;;6052739;23;20017;-80
2022/01/30 06:20:12;;;;;;;73.50;11.20;;;5.10;99.90;;;;;;6100095;23;20053;-79
2022/01/30 06:22:38;;;;;;;68.85;10.30;;;5.60;99.90;;;;;;6100537;23;20014;-80
2022/01/30 06:25:05;;;;;;;70.45;10.90;;;5.20;99.90;;;;;;6126198;23;20436;-80
2022/01/30 06:27:34;;;;;;;81.18;11.38;;;5.20;99.90;;;;;;6075343;23;20018;-81
2022/01/30 06:30:00;;;;;;;66.70;10.55;;;5.20;99.90;;;;;;6076711;23;20018;-80
2022/01/30 06:32:26;;;;;;;75.15;9.73;;;5.30;99.90;;;;;;6052426;23;20025;-79
2022/01/30 06:34:53;;;;;;;70.43;10.43;;;5.30;99.90;;;;;;6100140;23;20018;-79
2022/01/30 06:37:19;;;;;;;70.28;10.75;;;5.50;99.90;;;;;;6075810;23;20104;-79
2022/01/30 06:39:44;;;;;;;63.65;10.02;;;5.30;99.90;;;;;;6100078;23;20111;-79
2022/01/30 06:42:11;;;;;;;64.13;10.10;;;5.30;99.90;;;;;;6076177;23;20445;-79
2022/01/30 06:44:38;;;;;;;68.63;10.35;;;5.40;99.90;;;;;;6075407;23;20042;-79
2022/01/30 06:47:04;;;;;;;61.25;10.35;;;5.40;99.90;;;;;;6076681;23;20335;-79
2022/01/30 06:49:30;;;;;;;62.28;9.68;;;5.40;99.90;;;;;;6076510;23;20332;-80
2022/01/30 06:51:59;;;;;;;59.42;9.88;;;6.30;99.90;;;;;;6078836;23;20070;-79
2022/01/30 06:54:25;;;;;;;68.03;9.40;;;5.40;99.90;;;;;;6075712;23;20014;-79
2022/01/30 06:56:50;;;;;;;66.13;10.15;;;5.50;99.90;;;;;;6076068;23;20036;-79
2022/01/30 06:59:16;;;;;;;64.65;10.98;;;5.50;99.90;;;;;;6099906;23;20018;-76
2022/01/30 07:01:42;;;;;;;65.63;10.15;;;5.50;99.90;;;;;;6075281;23;20025;-76
2022/01/30 07:04:08;;;;;;;59.70;9.05;;;5.40;99.90;;;;;;6075587;23;20021;-77
2022/01/30 07:06:33;;;;;;;61.00;9.68;;;5.50;99.90;;;;;;6075771;23;20021;-77
2022/01/30 07:08:59;;;;;;;63.08;9.57;;;5.50;99.90;;;;;;6099961;23;20018;-79
2022/01/30 07:11:25;;;;;;;61.65;9.60;;;5.40;99.90;;;;;;6052017;23;20014;-79
2022/01/30 07:13:50;;;;;;;68.00;10.75;;;6.10;99.90;;;;;;6099989;23;20014;-79
2022/01/30 07:16:16;;;;;;;68.13;11.23;;;5.40;99.90;;;;;;6076024;23;20049;-78
2022/01/30 07:18:43;;;;;;;77.65;10.98;;;5.40;99.90;;;;;;6098551;23;20081;-77
2022/01/30 07:21:09;;;;;;;59.47;9.30;;;5.50;99.90;;;;;;6125864;23;20340;-77
2022/01/30 07:23:40;;;;;;;73.55;10.57;;;5.50;99.90;;;;;;6076293;23;20045;-80
2022/01/30 07:26:06;;;;;;;70.38;10.25;;;6.20;99.90;;;;;;6075662;23;20045;-80
2022/01/30 07:28:32;;;;;;;58.17;9.02;;;5.50;99.90;;;;;;6076288;23;20010;-80
2022/01/30 07:30:58;;;;;;;53.40;9.07;;;5.50;99.90;;;;;;6052028;23;20010;-80
2022/01/30 07:33:24;;;;;;;65.43;9.63;;;5.40;99.90;;;;;;6075961;23;20020;-80
2022/01/30 07:35:55;;;;;;;57.53;9.68;;;6.00;99.90;;;;;;6075193;23;20021;-79
2022/01/30 07:38:21;;;;;;;43.47;7.78;;;5.40;99.90;;;;;;6099140;23;20097;-79
2022/01/30 07:40:48;;;;;;;47.53;8.10;;;5.40;99.90;;;;;;6076016;23;20024;-79
2022/01/30 07:43:14;;;;;;;48.83;8.38;;;5.40;99.90;;;;;;6075800;23;20474;-79
2022/01/30 07:45:40;;;;;;;49.90;8.70;;;5.40;99.90;;;;;;6052048;23;20436;-77
2022/01/30 07:48:06;;;;;;;54.28;8.40;;;5.60;99.90;;;;;;6099915;23;20056;-77
2022/01/30 07:50:31;;;;;;;47.47;8.30;;;5.40;99.90;;;;;;6100189;23;20093;-80
2022/01/30 07:52:57;;;;;;;60.00;8.88;;;5.60;99.90;;;;;;6099149;23;20018;-79
2022/01/30 07:55:25;;;;;;;48.60;8.65;;;6.10;99.90;;;;;;6076110;23;20080;-79
2022/01/30 07:57:51;;;;;;;52.33;7.63;;;5.40;99.90;;;;;;6099736;23;20017;-78
2022/01/30 08:00:17;;;;;;;54.97;9.23;;;5.40;99.90;;;;;;6075616;23;20096;-78
2022/01/30 08:02:43;;;;;;;49.58;8.23;;;5.40;99.90;;;;;;6099569;23;20073;-79
2022/01/30 08:05:10;;;;;;;75.53;10.25;;;5.40;99.90;;;;;;6099377;23;20014;-79
2022/01/30 08:07:35;;;;;;;63.58;10.25;;;5.60;99.90;;;;;;6099358;23;20014;-79
2022/01/30 08:10:04;;;;;;;64.07;9.57;;;5.40;99.90;;;;;;6098521;23;20022;-78
2022/01/30 08:12:30;;;;;;;62.53;8.90;;;5.40;99.90;;;;;;6075596;23;20093;-79
2022/01/30 08:14:56;;;;;;;68.07;10.55;;;5.40;99.90;;;;;;6099842;23;20061;-79
2022/01/30 08:17:23;;;;;;;73.22;9.90;;;5.40;99.90;;;;;;6075811;23;20388;-78
2022/01/30 08:19:51;;;;;;;65.53;10.48;;;5.40;99.90;;;;;;6052360;23;20018;-77
2022/01/30 08:22:17;;;;;;;62.50;9.80;;;5.50;99.90;;;;;;6099219;23;20022;-84
2022/01/30 08:24:43;;;;;;;59.92;9.45;;;5.50;99.90;;;;;;6097469;23;20014;-78
2022/01/30 08:27:09;;;;;;;59.95;10.35;;;5.50;99.90;;;;;;6125661;23;20089;-79
2022/01/30 08:29:38;;;;;;;67.50;10.18;;;5.50;99.90;;;;;;6075323;23;20014;-76
2022/01/30 08:32:05;;;;;;;74.65;10.18;;;5.50;99.90;;;;;;6099271;23;20014;-77
2022/01/30 08:34:30;;;;;;;50.38;9.77;;;5.50;99.90;;;;;;6054154;23;20393;-76
2022/01/30 08:36:56;;;;;;;50.50;8.90;;;5.50;99.90;;;;;;6076797;23;20085;-81
2022/01/30 08:39:22;;;;;;;47.53;8.38;;;5.40;99.90;;;;;;6101014;23;20029;-81
2022/01/30 08:41:48;;;;;;;46.47;8.77;;;5.50;99.90;;;;;;6054079;23;20025;-82
2022/01/30 08:44:13;;;;;;;52.30;9.35;;;5.50;99.90;;;;;;6102143;23;20340;-81
2022/01/30 08:46:39;;;;;;;62.33;9.48;;;5.50;99.90;;;;;;6078710;23;20503;-82
2022/01/30 08:49:05;;;;;;;50.17;8.00;;;5.40;99.90;;;;;;6054783;23;20014;-82
2022/01/30 08:51:31;;;;;;;50.78;8.40;;;5.60;99.90;;;;;;6104087;23;20336;-82
2022/01/30 08:53:57;;;;;;;59.45;8.93;;;5.60;99.90;;;;;;6103956;23;20061;-81
2022/01/30 08:56:23;;;;;;;50.72;8.50;;;5.60;99.90;;;;;;6078695;23;20018;-82
2022/01/30 08:58:54;;;;;;;58.92;8.80;;;6.10;99.90;;;;;;6078620;23;20032;-81
2022/01/30 09:01:20;;;;;;;63.50;9.38;;;5.60;99.90;;;;;;6102507;23;20088;-81
2022/01/30 09:03:46;;;;;;;55.67;10.30;;;5.60;99.90;;;;;;6055440;23;20171;-81
2022/01/30 09:06:11;;;;;;;53.15;9.63;;;5.60;99.90;;;;;;6102958;23;20088;-81
2022/01/30 09:08:39;;;;;;;64.70;9.75;;;5.60;99.90;;;;;;6077552;23;20018;-81
2022/01/30 09:11:05;;;;;;;59.47;9.57;;;5.60;99.90;;;;;;6076889;23;20010;-82
2022/01/30 09:13:31;;;;;;;58.75;9.52;;;5.80;99.90;;;;;;6077094;23;20014;-81
2022/01/30 09:15:58;;;;;;;61.95;10.05;;;5.70;99.90;;;;;;6053630;23;20083;-81
2022/01/30 09:18:26;;;;;;;64.97;10.40;;;6.00;99.90;;;;;;6078110;23;20013;-80
2022/01/30 09:20:53;;;;;;;59.28;8.73;;;5.80;99.90;;;;;;6077557;23;20096;-81
2022/01/30 09:23:19;;;;;;;56.97;9.32;;;6.20;99.90;;;;;;6101781;23;20356;-81
2022/01/30 09:25:47;;;;;;;52.83;8.98;;;5.80;99.90;;;;;;6101956;23;20014;-80
2022/01/30 09:28:13;;;;;;;51.95;8.55;;;5.80;99.90;;;;;;6077686;23;20010;-80
2022/01/30 09:30:39;;;;;;;52.75;9.07;;;5.80;99.90;;;;;;6053626;23;20014;-75
2022/01/30 09:33:08;;;;;;;53.83;8.57;;;5.80;99.90;;;;;;6077070;23;20028;-82
2022/01/30 09:35:34;;;;;;;53.33;9.02;;;6.00;99.90;;;;;;6080592;23;20025;-83
2022/01/30 09:38:01;;;;;;;45.95;8.25;;;5.90;99.90;;;;;;6060558;23;20021;-82
2022/01/30 09:40:27;;;;;;;50.42;8.50;;;5.90;99.90;;;;;;6109689;23;20081;-83
2022/01/30 09:42:53;;;;;;;50.50;8.23;;;5.90;99.90;;;;;;6103548;23;20017;-79
2022/01/30 09:45:22;;;;;;;50.35;8.00;;;6.00;99.90;;;;;;6077415;23;20365;-79
2022/01/30 09:47:49;;;;;;;56.03;8.50;;;6.00;99.90;;;;;;6078898;23;20017;-79
2022/01/30 09:50:17;;;;;;;54.63;8.18;;;6.70;99.90;;;;;;6055557;23;20041;-80
2022/01/30 09:52:46;;;;;;;51.20;8.35;;;6.00;99.90;;;;;;6054577;23;20014;-79
2022/01/30 09:55:18;;;;;;;53.05;9.25;;;6.00;99.90;;;;;;6076967;23;20060;-79
2022/01/30 09:57:44;;;;;;;58.35;8.88;;;6.10;99.90;;;;;;6126571;23;20021;-81
2022/01/30 10:00:12;;;;;;;67.22;9.75;;;6.20;99.90;;;;;;6076061;23;20014;-81
2022/01/30 10:02:42;;;;;;;56.00;8.85;;;6.20;99.90;;;;;;6100333;23;20018;-79
2022/01/30 10:05:09;;;;;;;50.10;8.80;;;6.20;99.90;;;;;;6126935;23;20013;-80
2022/01/30 10:07:45;;;;;;;53.08;8.90;;;6.30;99.90;;;;;;6076479;23;20016;-80
2022/01/30 10:10:13;;;;;;;50.28;8.00;;;6.20;99.90;;;;;;6076477;23;20010;-79
2022/01/30 10:12:59;;;;;;;48.90;8.77;;;6.30;99.90;;;;;;6052641;23;20444;-79
2022/01/30 10:15:25;;;;;;;53.63;8.82;;;6.20;99.90;;;;;;6076318;23;20054;-81
2022/01/30 10:17:51;;;;;;;58.00;8.95;;;6.30;99.90;;;;;;6075765;23;20018;-80
2022/01/30 10:20:20;;;;;;;65.22;8.63;;;6.30;99.90;;;;;;6076232;23;20069;-80
2022/01/30 10:22:56;;;;;;;61.28;9.35;;;6.30;99.90;;;;;;6126441;23;20336;-79
2022/01/30 10:25:25;;;;;;;60.03;9.55;;;6.40;99.90;;;;;;6076268;23;20404;-77
2022/01/30 10:28:13;;;;;;;60.97;9.20;;;6.40;99.90;;;;;;6100185;23;20014;-78
2022/01/30 10:30:47;;;;;;;52.58;10.10;;;6.50;99.90;;;;;;6082711;23;20336;-77
2022/01/30 10:33:15;;;;;;;57.78;9.35;;;6.50;99.90;;;;;;6100331;23;20068;-75
2022/01/30 10:35:58;;;;;;;51.50;9.13;;;6.60;99.90;;;;;;6051772;23;20022;-76
2022/01/30 10:38:36;;;;;;;51.25;8.00;;;6.60;99.90;;;;;;6075942;23;20022;-75
2022/01/30 10:41:12;;;;;;;60.40;9.82;;;6.50;99.90;;;;;;6125848;23;20017;-76
2022/01/30 10:43:51;;;;;;;56.78;9.02;;;6.50;99.90;;;;;;6099798;23;20029;-75
2022/01/30 10:46:22;;;;;;;58.70;8.73;;;6.50;99.90;;;;;;6099337;23;20010;-73
2022/01/30 10:49:00;;;;;;;52.08;8.48;;;6.60;99.90;;;;;;6100194;23;20433;-74
2022/01/30 10:51:30;;;;;;;52.00;9.05;;;6.50;99.90;;;;;;6076455;23;20014;-74
2022/01/30 10:54:06;;;;;;;58.42;9.38;;;6.80;99.90;;;;;;6100104;23;20061;-74
2022/01/30 10:56:32;;;;;;;45.17;8.25;;;6.50;99.90;;;;;;6099834;23;20440;-74
2022/01/30 10:59:11;;;;;;;62.60;8.90;;;6.50;99.90;;;;;;6075834;23;20448;-74
2022/01/30 11:01:40;;;;;;;45.85;8.52;;;6.50;99.90;;;;;;6075578;23;20441;-74
2022/01/30 11:04:06;;;;;;;55.03;9.35;;;6.50;99.90;;;;;;6100001;23;20010;-74
2022/01/30 11:06:38;;;;;;;54.53;8.52;;;6.50;99.90;;;;;;6125815;23;20451;-74
2022/01/30 11:09:13;;;;;;;51.00;7.43;;;6.50;99.90;;;;;;6099814;23;20314;-74
2022/01/30 11:11:50;;;;;;;41.58;7.72;;;6.60;99.90;;;;;;6125918;23;20021;-74
2022/01/30 11:14:19;;;;;;;50.28;7.25;;;6.60;99.90;;;;;;6075778;23;20022;-74
2022/01/30 11:19:22;;;;;;;46.25;6.97;;;6.60;99.90;;;;;;6098903;23;20117;-74
2022/01/30 11:21:58;;;;;;;57.10;8.35;;;6.70;99.90;;;;;;6099735;23;20018;-74
2022/01/30 11:24:25;;;;;;;45.78;8.27;;;6.70;99.90;;;;;;6125985;23;20089;-74
2022/01/30 11:26:52;;;;;;;52.38;8.57;;;6.70;99.90;;;;;;6099486;23;20049;-74
2022/01/30 11:29:21;;;;;;;49.08;8.18;;;6.70;99.90;;;;;;6075465;23;20022;-74
2022/01/30 11:31:48;;;;;;;51.90;9.45;;;6.50;99.90;;;;;;6100103;23;20018;-74
2022/01/30 11:34:14;;;;;;;57.63;8.68;;;6.60;99.90;;;;;;6075046;23;20014;-74
2022/01/30 11:36:43;;;;;;;52.67;8.52;;;6.80;99.90;;;;;;6075710;23;20024;-74
2022/01/30 11:39:14;;;;;;;56.08;7.57;;;6.70;99.90;;;;;;6125967;23;20102;-74
2022/01/30 11:41:40;;;;;;;49.50;8.50;;;6.70;99.90;;;;;;6099690;23;20024;-74
2022/01/30 11:44:18;;;;;;;49.28;7.80;;;6.70;99.90;;;;;;6051640;23;20093;-74
2022/01/30 11:46:57;;;;;;;46.63;8.77;;;6.70;99.90;;;;;;6125712;23;20347;-76
2022/01/30 11:49:44;;;;;;;63.47;8.93;;;6.80;99.90;;;;;;6099460;23;20013;-74
2022/01/30 11:52:11;;;;;;;51.85;7.97;;;6.80;99.90;;;;;;6055646;23;20322;-76
2022/01/30 11:54:37;;;;;;;54.78;8.52;;;7.20;99.90;;;;;;6100048;23;20014;-76
2022/01/30 11:57:23;;;;;;;54.70;10.15;;;6.80;99.90;;;;;;6099685;23;20021;-74
2022/01/30 12:00:01;;;;;;;60.78;9.00;;;6.90;99.90;;;;;;6125508;23;20022;-74
2022/01/30 12:02:31;;;;;;;66.50;9.65;;;6.90;99.90;;;;;;6099468;23;20022;-74
2022/01/30 12:05:09;;;;;;;48.22;8.55;;;7.00;99.90;;;;;;6099656;23;20069;-74
2022/01/30 12:07:45;;;;;;;60.38;8.43;;;7.00;99.90;;;;;;6099261;23;20013;-74
2022/01/30 12:10:24;;;;;;;51.50;8.40;;;7.00;99.90;;;;;;6077385;23;20010;-74
2022/01/30 12:12:54;;;;;;;49.25;8.75;;;7.00;99.90;;;;;;6127459;23;20013;-74
2022/01/30 12:15:43;;;;;;;50.20;7.85;;;7.30;99.90;;;;;;6127251;23;20013;-74
2022/01/30 12:18:14;;;;;;;55.92;8.85;;;7.20;99.90;;;;;;6101713;23;20010;-74
2022/01/30 12:21:01;;;;;;;45.83;7.55;;;7.30;99.90;;;;;;6077592;23;20014;-77
2022/01/30 12:23:32;;;;;;;44.97;6.85;;;7.20;99.90;;;;;;6127005;23;20024;-75
2022/01/30 12:26:05;;;;;;;45.92;7.57;;;7.20;99.90;;;;;;6101114;23;20089;-75
2022/01/30 12:28:50;;;;;;;46.95;8.38;;;7.10;99.90;;;;;;6101480;23;20089;-75
2022/01/30 12:31:38;;;;;;;57.97;8.20;;;7.00;99.90;;;;;;6077514;23;20380;-75
2022/01/30 12:34:05;;;;;;;48.67;8.20;;;7.30;99.90;;;;;;6101325;23;20014;-75
2022/01/30 12:36:38;;;;;;;47.35;7.85;;;6.90;99.90;;;;;;6101180;23;20021;-75
2022/01/30 12:39:16;;;;;;;44.33;8.32;;;6.80;99.90;;;;;;6100695;23;20014;-75
2022/01/30 12:41:42;;;;;;;44.90;8.52;;;6.80;99.90;;;;;;6127103;23;20057;-75
2022/01/30 12:44:13;;;;;;;46.85;7.78;;;6.80;99.90;;;;;;6077316;23;20018;-75
2022/01/30 12:46:45;;;;;;;49.00;8.07;;;6.80;99.90;;;;;;6101196;23;20025;-75
2022/01/30 12:49:14;;;;;;;46.92;6.78;;;6.80;99.90;;;;;;6101206;23;20045;-75
2022/01/30 12:51:46;;;;;;;57.30;7.55;;;6.80;99.90;;;;;;6100821;23;20018;-75
2022/01/30 12:54:12;;;;;;;46.25;7.65;;;6.90;99.90;;;;;;6077265;23;20092;-75
2022/01/30 12:56:39;;;;;;;44.10;8.45;;;6.90;99.90;;;;;;6126538;23;20081;-74
2022/01/30 12:59:08;;;;;;;51.42;7.07;;;7.10;99.90;;;;;;6076990;23;20025;-74
2022/01/30 13:01:46;;;;;;;48.28;7.55;;;7.40;99.90;;;;;;6101017;23;20476;-75
2022/01/30 13:04:14;;;;;;;39.35;6.40;;;7.20;99.90;;;;;;6077077;23;20010;-75
2022/01/30 13:06:43;;;;;;;43.50;7.65;;;7.20;99.90;;;;;;6127045;23;20396;-74
2022/01/30 13:09:09;;;;;;;48.00;6.20;;;7.20;99.90;;;;;;6077251;23;20018;-75
2022/01/30 13:11:36;;;;;;;46.85;7.60;;;7.20;99.90;;;;;;6077188;23;20075;-74
2022/01/30 13:14:04;;;;;;;45.05;7.78;;;7.20;99.90;;;;;;6052799;23;20013;-74
2022/01/30 13:16:33;;;;;;;40.78;7.10;;;7.30;99.90;;;;;;6126973;23;20017;-74
2022/01/30 13:19:00;;;;;;;48.85;7.95;;;7.30;99.90;;;;;;6100759;23;20018;-74
2022/01/30 13:21:29;;;;;;;37.63;6.78;;;7.50;99.90;;;;;;6057955;23;20013;-75
2022/01/30 13:23:55;;;;;;;45.25;6.53;;;7.30;99.90;;;;;;6077238;23;20014;-75
2022/01/30 13:26:37;;;;;;;51.42;7.68;;;7.30;99.90;;;;;;6082660;23;20018;-75
2022/01/30 13:29:07;;;;;;;46.50;7.13;;;7.20;99.90;;;;;;6126474;23;20010;-75
2022/01/30 13:31:35;;;;;;;44.53;7.25;;;7.10;99.90;;;;;;6100439;23;20490;-75
2022/01/30 13:34:11;;;;;;;53.13;7.25;;;7.10;99.90;;;;;;6076995;23;20057;-75
2022/01/30 13:36:38;;;;;;;51.67;8.30;;;7.00;99.90;;;;;;6076222;23;20156;-75
2022/01/30 13:39:08;;;;;;;49.30;7.88;;;7.20;99.90;;;;;;6076487;23;20014;-75
2022/01/30 13:41:44;;;;;;;44.45;7.15;;;6.90;99.90;;;;;;6053580;23;20027;-75